Time;durP1;ratioP1;P1;durP2;ratioP2;P2;SDS_P1;SDS_P2;PMS_P1;PMS_P2;Temp;Humidity;BMP_temperature;BMP_pressure;BME280_temperature;BME280_humidity;BME280_pressure;Samples;Min_cycle;Max_cycle;Signal;HPM_P1;HPM_P2
2023/04/26 00:01:49;;;;;;;5.63;1.15;;;;;;;;;;5055212;28;20126;-82
2023/04/26 00:04:14;;;;;;;7.78;1.65;;;;;;;;;;5049489;28;20171;-81
2023/04/26 00:06:40;;;;;;;4.18;0.90;;;;;;;;;;5042331;28;20032;-82
2023/04/26 00:09:06;;;;;;;3.90;1.02;;;;;;;;;;5053816;28;20175;-81
2023/04/26 00:11:32;;;;;;;3.05;0.90;;;;;;;;;;5050727;28;20063;-81
2023/04/26 00:13:58;;;;;;;5.43;1.08;;;;;;;;;;5050409;28;20048;-81
2023/04/26 00:16:23;;;;;;;2.97;0.85;;;;;;;;;;5041603;28;20028;-81
2023/04/26 00:18:48;;;;;;;5.03;0.95;;;;;;;;;;5059950;28;20032;-82
2023/04/26 00:21:14;;;;;;;5.85;1.30;;;;;;;;;;5059902;28;20031;-82
2023/04/26 00:23:41;;;;;;;5.07;1.05;;;;;;;;;;5039297;28;20064;-81
2023/04/26 00:26:06;;;;;;;2.75;0.80;;;;;;;;;;5040573;28;20595;-81
2023/04/26 00:28:32;;;;;;;6.75;1.73;;;;;;;;;;5051628;28;20045;-81
2023/04/26 00:30:57;;;;;;;4.70;1.20;;;;;;;;;;5050306;28;20032;-80
2023/04/26 00:33:23;;;;;;;5.57;1.10;;;;;;;;;;5044550;28;20043;-82
2023/04/26 00:35:49;;;;;;;2.55;0.65;;;;;;;;;;5039001;28;20584;-82
2023/04/26 00:38:14;;;;;;;6.47;1.35;;;;;;;;;;5050917;28;20066;-81
2023/04/26 00:40:40;;;;;;;4.40;0.90;;;;;;;;;;5041287;28;20082;-82
2023/04/26 00:43:06;;;;;;;5.13;1.13;;;;;;;;;;5036886;28;20052;-81
2023/04/26 00:45:31;;;;;;;3.33;0.90;;;;;;;;;;5036047;28;20037;-80
2023/04/26 00:48:00;;;;;;;3.47;1.17;;;;;;;;;;5051694;28;20036;-82
2023/04/26 00:50:26;;;;;;;6.18;0.80;;;;;;;;;;5050025;28;20538;-81
2023/04/26 00:52:51;;;;;;;8.93;1.20;;;;;;;;;;5050694;28;20036;-81
2023/04/26 00:55:17;;;;;;;4.15;1.02;;;;;;;;;;5049832;28;20052;-80
2023/04/26 00:57:44;;;;;;;3.90;0.98;;;;;;;;;;5053300;28;20056;-81
2023/04/26 01:00:10;;;;;;;3.75;0.70;;;;;;;;;;5051620;28;20041;-80
2023/04/26 01:02:36;;;;;;;2.95;0.68;;;;;;;;;;5066335;28;20466;-80
2023/04/26 01:05:01;;;;;;;4.07;0.90;;;;;;;;;;5051597;28;20037;-81
2023/04/26 01:07:27;;;;;;;5.03;0.95;;;;;;;;;;5049290;28;20033;-80
2023/04/26 01:09:53;;;;;;;4.40;1.02;;;;;;;;;;5036681;28;20048;-81
2023/04/26 01:12:19;;;;;;;4.05;0.80;;;;;;;;;;5053642;28;20032;-81
2023/04/26 01:14:45;;;;;;;4.57;0.93;;;;;;;;;;5057458;28;20040;-81
2023/04/26 01:17:10;;;;;;;4.95;1.05;;;;;;;;;;5039053;28;20102;-81
2023/04/26 01:19:36;;;;;;;3.63;0.98;;;;;;;;;;5049533;28;20040;-81
2023/04/26 01:22:02;;;;;;;3.08;0.95;;;;;;;;;;5051803;28;20464;-80
2023/04/26 01:24:28;;;;;;;3.28;1.00;;;;;;;;;;5050065;28;20715;-79
2023/04/26 01:26:53;;;;;;;2.40;0.57;;;;;;;;;;5058432;28;20035;-83
2023/04/26 01:29:20;;;;;;;3.55;1.10;;;;;;;;;;5037663;28;20060;-83
2023/04/26 01:31:46;;;;;;;5.70;1.20;;;;;;;;;;5052510;28;20102;-81
2023/04/26 01:34:12;;;;;;;5.28;1.20;;;;;;;;;;5050345;28;20992;-82
2023/04/26 01:36:37;;;;;;;8.63;1.10;;;;;;;;;;5049870;28;20056;-81
2023/04/26 01:39:03;;;;;;;5.85;1.27;;;;;;;;;;5049936;28;20184;-81
2023/04/26 01:41:28;;;;;;;5.88;1.20;;;;;;;;;;5035811;28;20701;-80
2023/04/26 01:43:54;;;;;;;5.95;1.23;;;;;;;;;;5051951;28;20036;-80
2023/04/26 01:46:20;;;;;;;4.10;1.00;;;;;;;;;;5054245;28;20108;-81
2023/04/26 01:48:46;;;;;;;4.38;0.93;;;;;;;;;;5049511;28;20535;-81
2023/04/26 01:51:11;;;;;;;3.58;0.93;;;;;;;;;;5037252;28;20037;-81
2023/04/26 01:53:37;;;;;;;3.22;0.90;;;;;;;;;;5050045;28;20581;-81
2023/04/26 01:56:02;;;;;;;5.93;1.02;;;;;;;;;;5048436;28;20106;-81
2023/04/26 01:58:28;;;;;;;4.22;1.05;;;;;;;;;;5051226;28;20072;-81
2023/04/26 02:00:55;;;;;;;3.33;0.95;;;;;;;;;;5052895;28;20554;-80
2023/04/26 02:03:20;;;;;;;4.43;1.00;;;;;;;;;;5066740;28;20111;-81
2023/04/26 02:05:45;;;;;;;7.43;1.48;;;;;;;;;;5049296;28;20112;-81
2023/04/26 02:08:11;;;;;;;4.28;1.65;;;;;;;;;;5036557;28;20061;-81
2023/04/26 02:10:36;;;;;;;4.72;1.48;;;;;;;;;;5050003;28;20541;-81
2023/04/26 02:13:01;;;;;;;5.95;0.90;;;;;;;;;;5050971;28;20040;-81
2023/04/26 02:15:27;;;;;;;5.63;1.00;;;;;;;;;;5051041;28;20036;-81
2023/04/26 02:17:54;;;;;;;4.60;0.82;;;;;;;;;;5053456;28;20028;-81
2023/04/26 02:20:20;;;;;;;5.78;1.00;;;;;;;;;;5059264;28;20797;-81
2023/04/26 02:22:45;;;;;;;5.55;1.17;;;;;;;;;;5052141;28;20029;-81
2023/04/26 02:25:10;;;;;;;5.15;1.02;;;;;;;;;;5051869;28;20063;-81
2023/04/26 02:27:36;;;;;;;5.03;1.20;;;;;;;;;;5048561;28;20429;-81
2023/04/26 02:30:02;;;;;;;3.72;0.85;;;;;;;;;;5050575;28;20128;-80
2023/04/26 02:32:28;;;;;;;4.55;0.85;;;;;;;;;;5051612;28;20384;-81
2023/04/26 02:34:53;;;;;;;7.13;1.23;;;;;;;;;;5052470;28;20032;-80
2023/04/26 02:37:20;;;;;;;2.47;1.10;;;;;;;;;;5055685;28;20554;-80
2023/04/26 02:39:49;;;;;;;4.20;1.10;;;;;;;;;;5051277;28;20040;-80
2023/04/26 02:42:14;;;;;;;3.30;0.90;;;;;;;;;;5036034;28;20033;-80
2023/04/26 02:44:39;;;;;;;5.35;1.15;;;;;;;;;;5043037;28;20087;-81
2023/04/26 02:47:05;;;;;;;4.88;1.00;;;;;;;;;;5050787;28;20053;-81
2023/04/26 02:49:30;;;;;;;2.90;1.00;;;;;;;;;;5051603;28;20121;-80
2023/04/26 02:51:55;;;;;;;2.42;1.08;;;;;;;;;;5049289;28;20056;-80
2023/04/26 02:54:21;;;;;;;4.35;1.00;;;;;;;;;;5052575;28;20037;-79
2023/04/26 02:56:46;;;;;;;4.00;1.13;;;;;;;;;;5051196;28;20039;-80
2023/04/26 02:59:12;;;;;;;5.40;1.00;;;;;;;;;;5051352;28;20033;-80
2023/04/26 03:01:37;;;;;;;5.07;1.02;;;;;;;;;;5049828;28;20385;-80
2023/04/26 03:04:03;;;;;;;6.85;1.10;;;;;;;;;;5045418;28;20152;-80
2023/04/26 03:06:28;;;;;;;7.97;1.45;;;;;;;;;;5042877;28;20029;-80
2023/04/26 03:08:54;;;;;;;2.97;0.90;;;;;;;;;;5054424;28;20072;-81
2023/04/26 03:11:19;;;;;;;3.30;1.00;;;;;;;;;;5043941;28;20478;-80
2023/04/26 03:13:45;;;;;;;6.35;0.93;;;;;;;;;;5053694;28;20033;-80
2023/04/26 03:16:10;;;;;;;4.40;1.27;;;;;;;;;;5038953;28;20120;-80
2023/04/26 03:18:36;;;;;;;4.43;1.23;;;;;;;;;;5069837;28;20055;-80
2023/04/26 03:21:02;;;;;;;6.90;1.30;;;;;;;;;;5054110;28;20067;-80
2023/04/26 03:23:28;;;;;;;5.88;1.35;;;;;;;;;;5053188;28;20064;-79
2023/04/26 03:25:53;;;;;;;6.13;1.13;;;;;;;;;;5052229;28;20041;-80
2023/04/26 03:28:19;;;;;;;5.00;0.93;;;;;;;;;;5060906;28;20072;-80
2023/04/26 03:30:44;;;;;;;6.13;1.27;;;;;;;;;;5052410;28;20081;-80
2023/04/26 03:33:10;;;;;;;3.90;1.17;;;;;;;;;;5052439;28;20094;-80
2023/04/26 03:35:36;;;;;;;3.50;1.00;;;;;;;;;;5043242;28;20041;-80
2023/04/26 03:38:01;;;;;;;6.18;1.70;;;;;;;;;;5052452;28;20123;-80
2023/04/26 03:40:26;;;;;;;3.95;1.10;;;;;;;;;;5055689;28;20025;-80
2023/04/26 03:42:52;;;;;;;5.80;1.02;;;;;;;;;;5054633;28;20064;-81
2023/04/26 03:45:17;;;;;;;5.85;1.55;;;;;;;;;;5051634;28;20494;-80
2023/04/26 03:47:43;;;;;;;4.40;1.13;;;;;;;;;;5052883;28;20060;-80
2023/04/26 03:50:08;;;;;;;4.05;1.02;;;;;;;;;;5053143;28;20111;-80
2023/04/26 03:52:34;;;;;;;4.13;1.10;;;;;;;;;;5051367;28;20060;-80
2023/04/26 03:55:00;;;;;;;4.35;1.10;;;;;;;;;;5051911;28;20091;-81
2023/04/26 03:57:25;;;;;;;5.05;0.90;;;;;;;;;;5059893;28;20044;-80
2023/04/26 03:59:50;;;;;;;6.50;1.20;;;;;;;;;;5056738;28;20040;-80
2023/04/26 04:02:16;;;;;;;3.80;1.15;;;;;;;;;;5055341;28;20047;-80
2023/04/26 04:04:41;;;;;;;4.35;1.02;;;;;;;;;;5054162;28;20059;-80
2023/04/26 04:07:07;;;;;;;6.15;1.10;;;;;;;;;;5051509;28;20156;-80
2023/04/26 04:09:32;;;;;;;5.60;1.25;;;;;;;;;;5036553;28;20037;-80
2023/04/26 04:11:57;;;;;;;2.92;1.10;;;;;;;;;;5051126;28;20526;-80
2023/04/26 04:14:23;;;;;;;8.77;1.65;;;;;;;;;;5043398;28;20043;-81
2023/04/26 04:16:48;;;;;;;5.55;1.15;;;;;;;;;;5043252;28;20170;-80
2023/04/26 04:19:13;;;;;;;9.55;1.48;;;;;;;;;;5050196;28;20117;-81
2023/04/26 04:21:39;;;;;;;3.10;1.20;;;;;;;;;;5049645;28;20037;-81
2023/04/26 04:24:05;;;;;;;6.68;1.60;;;;;;;;;;5053247;28;20087;-81
2023/04/26 04:26:30;;;;;;;6.53;1.40;;;;;;;;;;5052935;28;20535;-81
2023/04/26 04:28:56;;;;;;;8.02;1.38;;;;;;;;;;5036303;28;20127;-80
2023/04/26 04:31:22;;;;;;;4.30;1.42;;;;;;;;;;5057114;28;20108;-81
2023/04/26 04:33:47;;;;;;;4.00;1.25;;;;;;;;;;5042982;28;20035;-81
2023/04/26 04:36:15;;;;;;;8.13;1.92;;;;;;;;;;5041727;28;20388;-80
2023/04/26 04:38:41;;;;;;;6.78;1.60;;;;;;;;;;5050710;28;20040;-80
2023/04/26 04:41:07;;;;;;;5.35;1.30;;;;;;;;;;5037168;28;20060;-81
2023/04/26 04:43:33;;;;;;;4.80;1.25;;;;;;;;;;5052283;28;20033;-80
2023/04/26 04:45:58;;;;;;;4.15;1.38;;;;;;;;;;5026247;28;20511;-81
2023/04/26 04:48:24;;;;;;;4.65;1.30;;;;;;;;;;5030398;28;20046;-82
2023/04/26 04:50:49;;;;;;;5.05;1.20;;;;;;;;;;5034929;28;20036;-81
2023/04/26 04:53:15;;;;;;;4.53;1.38;;;;;;;;;;5041461;28;20051;-82
2023/04/26 04:55:40;;;;;;;7.50;1.73;;;;;;;;;;5053602;28;20044;-81
2023/04/26 04:58:06;;;;;;;2.88;1.20;;;;;;;;;;5050799;28;20036;-82
2023/04/26 05:00:31;;;;;;;4.65;1.15;;;;;;;;;;5047653;28;20037;-81
2023/04/26 05:02:57;;;;;;;8.95;1.40;;;;;;;;;;5059380;28;20092;-81
2023/04/26 05:05:22;;;;;;;4.00;1.35;;;;;;;;;;5047719;28;20033;-81
2023/04/26 05:07:48;;;;;;;4.93;1.20;;;;;;;;;;5042332;28;20064;-82
2023/04/26 05:10:13;;;;;;;6.25;1.45;;;;;;;;;;5051002;28;20041;-82
2023/04/26 05:12:39;;;;;;;3.83;1.08;;;;;;;;;;5051176;28;20115;-81
2023/04/26 05:15:05;;;;;;;3.28;1.40;;;;;;;;;;5049370;28;20044;-81
2023/04/26 05:17:32;;;;;;;6.05;1.25;;;;;;;;;;5033731;28;20109;-82
2023/04/26 05:19:57;;;;;;;10.60;1.65;;;;;;;;;;5040919;28;20511;-82
2023/04/26 05:22:23;;;;;;;7.82;1.10;;;;;;;;;;5059872;28;20032;-82
2023/04/26 05:24:48;;;;;;;9.48;1.48;;;;;;;;;;5048577;28;20116;-80
2023/04/26 05:27:14;;;;;;;5.35;1.25;;;;;;;;;;5049059;28;20029;-82
2023/04/26 05:29:40;;;;;;;4.68;1.15;;;;;;;;;;5035196;28;20601;-81
2023/04/26 05:32:06;;;;;;;4.40;1.00;;;;;;;;;;5050205;28;20045;-82
2023/04/26 05:34:31;;;;;;;4.32;1.27;;;;;;;;;;5052060;28;20048;-81
2023/04/26 05:36:57;;;;;;;6.68;1.63;;;;;;;;;;5041420;28;20043;-81
2023/04/26 05:39:22;;;;;;;4.85;1.20;;;;;;;;;;5050312;28;20381;-81
2023/04/26 05:41:47;;;;;;;4.93;1.20;;;;;;;;;;5035066;28;20029;-82
2023/04/26 05:44:13;;;;;;;5.35;1.40;;;;;;;;;;5050722;28;20438;-81
2023/04/26 05:46:39;;;;;;;6.82;1.30;;;;;;;;;;5036591;28;20037;-81
2023/04/26 05:49:05;;;;;;;5.95;1.90;;;;;;;;;;5057979;28;20472;-81
2023/04/26 05:51:30;;;;;;;5.45;0.98;;;;;;;;;;5030912;28;20237;-81
2023/04/26 05:53:57;;;;;;;4.95;1.10;;;;;;;;;;5050037;28;20055;-81
2023/04/26 05:56:24;;;;;;;6.38;1.60;;;;;;;;;;5041147;28;20427;-81
2023/04/26 05:58:50;;;;;;;4.40;1.63;;;;;;;;;;5039900;28;20845;-81
2023/04/26 06:01:15;;;;;;;4.55;1.23;;;;;;;;;;5050242;28;20043;-81
2023/04/26 06:03:41;;;;;;;5.93;1.40;;;;;;;;;;5033999;28;20527;-80
2023/04/26 06:06:07;;;;;;;3.85;1.27;;;;;;;;;;5031722;28;20074;-81
2023/04/26 06:08:33;;;;;;;4.72;1.40;;;;;;;;;;5045089;28;20041;-82
2023/04/26 06:10:58;;;;;;;3.40;0.90;;;;;;;;;;5025014;28;20032;-80
2023/04/26 06:13:24;;;;;;;5.28;1.33;;;;;;;;;;5046954;28;20046;-81
2023/04/26 06:15:49;;;;;;;4.47;1.30;;;;;;;;;;5029293;28;20087;-81
2023/04/26 06:18:15;;;;;;;4.45;1.10;;;;;;;;;;5040802;28;20524;-81
2023/04/26 06:20:41;;;;;;;6.60;1.20;;;;;;;;;;5032967;28;20029;-81
2023/04/26 06:23:06;;;;;;;3.78;1.05;;;;;;;;;;5049017;28;20155;-82
2023/04/26 06:25:32;;;;;;;2.65;1.00;;;;;;;;;;5035175;28;20045;-81
2023/04/26 06:27:58;;;;;;;3.83;1.13;;;;;;;;;;5049845;28;20492;-80
2023/04/26 06:30:23;;;;;;;4.45;1.17;;;;;;;;;;5051517;28;20048;-81
2023/04/26 06:32:49;;;;;;;3.88;1.10;;;;;;;;;;5039334;28;20071;-81
2023/04/26 06:35:15;;;;;;;5.10;0.85;;;;;;;;;;5041685;28;25190;-81
2023/04/26 06:37:40;;;;;;;8.73;1.40;;;;;;;;;;5053489;28;20086;-81
2023/04/26 06:40:06;;;;;;;7.63;1.40;;;;;;;;;;5053542;28;20361;-82
2023/04/26 06:42:32;;;;;;;2.83;1.10;;;;;;;;;;5054851;28;20108;-81
2023/04/26 06:44:57;;;;;;;2.15;0.90;;;;;;;;;;5053258;28;20041;-83
2023/04/26 06:47:23;;;;;;;3.88;0.93;;;;;;;;;;5039802;28;20102;-83
2023/04/26 06:49:48;;;;;;;5.28;1.42;;;;;;;;;;5052823;28;20032;-82
2023/04/26 06:52:14;;;;;;;5.15;1.17;;;;;;;;;;5052769;28;20147;-82
2023/04/26 06:54:40;;;;;;;6.80;1.27;;;;;;;;;;5061617;28;20203;-83
2023/04/26 06:57:05;;;;;;;6.68;1.23;;;;;;;;;;5052650;28;20029;-82
2023/04/26 06:59:31;;;;;;;6.57;1.20;;;;;;;;;;5051099;28;20678;-81
2023/04/26 07:01:56;;;;;;;6.68;1.30;;;;;;;;;;5053311;28;20037;-81
2023/04/26 07:04:21;;;;;;;6.03;1.23;;;;;;;;;;5038074;28;20032;-82
2023/04/26 07:06:47;;;;;;;4.60;1.58;;;;;;;;;;5059999;28;20391;-83
2023/04/26 07:09:13;;;;;;;5.80;1.25;;;;;;;;;;5053179;28;20032;-83
2023/04/26 07:11:38;;;;;;;6.53;1.10;;;;;;;;;;5051862;28;20468;-82
2023/04/26 07:14:04;;;;;;;4.03;1.20;;;;;;;;;;5053676;28;20036;-82
2023/04/26 07:16:30;;;;;;;4.90;1.38;;;;;;;;;;5052632;28;20416;-82
2023/04/26 07:18:59;;;;;;;3.70;1.35;;;;;;;;;;5053273;28;20037;-81
2023/04/26 07:21:25;;;;;;;6.20;1.15;;;;;;;;;;5059796;28;20032;-82
2023/04/26 07:23:57;;;;;;;5.30;1.15;;;;;;;;;;5053894;28;20280;-83
2023/04/26 07:26:22;;;;;;;5.32;1.30;;;;;;;;;;5049982;28;20500;-83
2023/04/26 07:28:50;;;;;;;9.45;1.80;;;;;;;;;;5052904;28;20040;-82
2023/04/26 07:31:16;;;;;;;4.28;1.02;;;;;;;;;;5039685;28;20388;-82
2023/04/26 07:33:42;;;;;;;6.88;1.17;;;;;;;;;;5052381;28;20044;-81
2023/04/26 07:36:07;;;;;;;3.53;1.15;;;;;;;;;;5048684;28;20790;-82
2023/04/26 07:38:33;;;;;;;6.22;1.30;;;;;;;;;;5044531;28;20032;-82
2023/04/26 07:41:00;;;;;;;6.63;1.30;;;;;;;;;;5036013;28;20112;-82
2023/04/26 07:43:25;;;;;;;6.50;1.30;;;;;;;;;;5038737;28;20036;-80
2023/04/26 07:45:50;;;;;;;8.13;1.15;;;;;;;;;;5052691;28;20033;-82
2023/04/26 07:48:16;;;;;;;5.22;1.15;;;;;;;;;;5049319;28;20037;-82
2023/04/26 07:50:41;;;;;;;4.43;1.20;;;;;;;;;;5050686;28;20040;-82
2023/04/26 07:53:06;;;;;;;3.65;1.10;;;;;;;;;;5051318;28;20068;-82
2023/04/26 07:55:32;;;;;;;8.98;1.42;;;;;;;;;;5054769;28;20048;-81
2023/04/26 07:57:57;;;;;;;3.25;1.08;;;;;;;;;;5054440;28;20044;-82
2023/04/26 08:00:23;;;;;;;6.47;1.25;;;;;;;;;;5050107;28;20087;-81
2023/04/26 08:02:48;;;;;;;6.97;1.00;;;;;;;;;;5051839;28;20207;-82
2023/04/26 08:05:14;;;;;;;3.40;1.10;;;;;;;;;;5051217;28;20033;-80
2023/04/26 08:07:43;;;;;;;6.28;1.00;;;;;;;;;;5049498;28;20043;-82
2023/04/26 08:10:12;;;;;;;2.97;0.82;;;;;;;;;;5059791;28;20040;-82
2023/04/26 08:12:37;;;;;;;4.28;0.95;;;;;;;;;;5053026;28;20032;-81
2023/04/26 08:15:04;;;;;;;5.22;1.00;;;;;;;;;;5053631;28;20094;-82
2023/04/26 08:17:52;;;;;;;4.72;1.00;;;;;;;;;;5043488;28;20029;-82
2023/04/26 08:20:17;;;;;;;4.90;1.05;;;;;;;;;;4996572;28;20377;-82
2023/04/26 08:22:43;;;;;;;4.28;1.10;;;;;;;;;;4985833;28;20049;-81
2023/04/26 08:25:09;;;;;;;3.80;0.93;;;;;;;;;;4969471;28;20054;-81
2023/04/26 08:27:35;;;;;;;4.15;1.00;;;;;;;;;;4980350;28;20172;-82
2023/04/26 08:30:01;;;;;;;3.33;1.30;;;;;;;;;;4997137;28;20510;-81
2023/04/26 08:32:26;;;;;;;4.68;1.05;;;;;;;;;;4979059;28;20041;-81
2023/04/26 08:34:51;;;;;;;4.93;1.10;;;;;;;;;;4997491;28;20044;-82
2023/04/26 08:37:17;;;;;;;5.82;1.60;;;;;;;;;;4983234;28;20109;-82
2023/04/26 08:39:42;;;;;;;4.47;1.00;;;;;;;;;;4984523;28;20042;-82
2023/04/26 08:42:15;;;;;;;3.42;0.88;;;;;;;;;;4980530;28;20401;-82
2023/04/26 08:44:42;;;;;;;4.07;0.88;;;;;;;;;;4989633;28;20506;-82
2023/04/26 08:47:13;;;;;;;4.60;0.77;;;;;;;;;;4978859;28;20041;-82
2023/04/26 08:49:41;;;;;;;4.10;1.00;;;;;;;;;;4995274;28;20037;-82
2023/04/26 08:52:11;;;;;;;4.05;0.90;;;;;;;;;;4992600;28;20042;-82
2023/04/26 08:54:38;;;;;;;4.55;0.80;;;;;;;;;;4992349;28;20052;-82
2023/04/26 08:57:06;;;;;;;2.92;0.82;;;;;;;;;;4993488;28;20052;-82
2023/04/26 08:59:33;;;;;;;3.33;0.70;;;;;;;;;;5032470;28;20033;-81
2023/04/26 09:02:01;;;;;;;4.00;0.80;;;;;;;;;;5043859;28;20045;-81
2023/04/26 09:04:27;;;;;;;4.13;0.70;;;;;;;;;;5051539;28;20074;-81
2023/04/26 09:06:54;;;;;;;3.67;0.80;;;;;;;;;;5050502;28;20033;-83
2023/04/26 09:09:20;;;;;;;;;;;;;;;;;;5049155;28;20365;-82
2023/04/26 09:12:11;;;;;;;3.97;1.00;;;;;;;;;;5053194;28;19928;-82
2023/04/26 09:14:37;;;;;;;4.22;1.02;;;;;;;;;;5031959;28;20288;-82
2023/04/26 09:17:03;;;;;;;4.68;0.75;;;;;;;;;;5042452;28;20040;-81
2023/04/26 09:19:39;;;;;;;2.28;0.80;;;;;;;;;;5051893;28;20464;-82
2023/04/26 09:22:05;;;;;;;5.80;1.00;;;;;;;;;;5049288;28;20037;-82
2023/04/26 09:24:51;;;;;;;3.67;0.88;;;;;;;;;;5051101;28;20055;-81
2023/04/26 09:27:17;;;;;;;5.28;1.08;;;;;;;;;;5059030;28;20083;-82
2023/04/26 09:30:01;;;;;;;2.72;0.70;;;;;;;;;;5056693;28;20436;-81
2023/04/26 09:32:43;;;;;;;4.72;0.80;;;;;;;;;;5057387;28;20040;-81
2023/04/26 09:35:18;;;;;;;3.58;0.90;;;;;;;;;;5058292;28;20037;-79
2023/04/26 09:37:51;;;;;;;4.18;0.93;;;;;;;;;;5048010;28;20040;-81
2023/04/26 09:40:18;;;;;;;2.65;0.80;;;;;;;;;;5047309;28;20036;-81
2023/04/26 09:42:43;;;;;;;4.47;1.03;;;;;;;;;;5051280;28;20036;-82
2023/04/26 09:45:09;;;;;;;4.78;0.70;;;;;;;;;;5049350;28;20275;-82
2023/04/26 09:47:35;;;;;;;5.70;0.90;;;;;;;;;;5049748;28;20503;-82
2023/04/26 09:50:00;;;;;;;1.98;0.73;;;;;;;;;;5050317;28;20553;-82
2023/04/26 09:52:27;;;;;;;3.67;0.88;;;;;;;;;;5049197;28;20025;-81
2023/04/26 09:54:53;;;;;;;4.10;1.05;;;;;;;;;;5059606;28;20033;-82
2023/04/26 09:57:21;;;;;;;2.22;0.60;;;;;;;;;;5049276;28;20036;-82
2023/04/26 09:59:51;;;;;;;3.15;0.80;;;;;;;;;;5040546;28;20036;-82
2023/04/26 10:02:27;;;;;;;2.80;1.23;;;;;;;;;;5036663;28;20036;-82
2023/04/26 10:04:54;;;;;;;3.63;0.75;;;;;;;;;;5051590;28;20681;-82
2023/04/26 10:07:21;;;;;;;4.10;0.90;;;;;;;;;;5032225;28;20124;-82
2023/04/26 10:09:48;;;;;;;2.47;0.60;;;;;;;;;;5047397;28;20083;-82
2023/04/26 10:12:19;;;;;;;2.43;0.70;;;;;;;;;;5050398;28;20043;-81
2023/04/26 10:14:45;;;;;;;1.63;0.63;;;;;;;;;;5053992;28;20037;-81
2023/04/26 10:17:12;;;;;;;3.78;0.90;;;;;;;;;;5053148;28;20047;-81
2023/04/26 10:19:39;;;;;;;4.15;0.90;;;;;;;;;;5057688;28;20047;-81
2023/04/26 10:22:09;;;;;;;2.80;0.68;;;;;;;;;;5040983;28;20049;-81
2023/04/26 10:24:35;;;;;;;3.65;0.88;;;;;;;;;;5056689;28;20431;-81
2023/04/26 10:27:03;;;;;;;2.13;0.65;;;;;;;;;;5063203;28;20039;-81
2023/04/26 10:29:53;;;;;;;3.20;0.90;;;;;;;;;;5054861;28;20045;-81
2023/04/26 10:32:19;;;;;;;3.80;0.80;;;;;;;;;;5070258;28;20135;-82
2023/04/26 10:35:11;;;;;;;3.80;0.85;;;;;;;;;;5053215;28;20443;-81
2023/04/26 10:37:57;;;;;;;2.35;0.80;;;;;;;;;;5038354;28;20457;-81
2023/04/26 10:40:27;;;;;;;2.15;0.80;;;;;;;;;;5047084;28;20036;-82
2023/04/26 10:43:17;;;;;;;4.50;1.13;;;;;;;;;;5049485;28;20919;-82
2023/04/26 10:45:46;;;;;;;4.18;1.02;;;;;;;;;;5045762;28;20115;-82
2023/04/26 10:48:17;;;;;;;3.40;0.90;;;;;;;;;;5055011;28;20045;-82
2023/04/26 10:51:32;;;;;;;3.58;0.95;;;;;;;;;;5059352;28;20071;-82
2023/04/26 10:53:58;;;;;;;3.30;1.08;;;;;;;;;;5044122;28;20041;-82
2023/04/26 10:56:26;;;;;;;4.70;0.88;;;;;;;;;;5053562;28;20143;-82
2023/04/26 10:59:07;;;;;;;2.63;0.98;;;;;;;;;;5052762;28;20037;-81
2023/04/26 11:01:33;;;;;;;3.67;1.00;;;;;;;;;;5042342;28;20041;-81
2023/04/26 11:03:58;;;;;;;5.07;0.98;;;;;;;;;;5044631;28;20048;-82
2023/04/26 11:06:25;;;;;;;5.25;1.83;;;;;;;;;;5061350;28;20111;-84
2023/04/26 11:08:52;;;;;;;2.70;0.95;;;;;;;;;;5053517;28;20039;-83
2023/04/26 11:11:21;;;;;;;4.15;1.10;;;;;;;;;;5060091;28;20436;-83
2023/04/26 11:13:46;;;;;;;4.80;1.00;;;;;;;;;;5040118;28;20087;-82
2023/04/26 11:16:13;;;;;;;3.28;1.10;;;;;;;;;;5051185;28;20060;-84
2023/04/26 11:18:41;;;;;;;7.63;1.52;;;;;;;;;;5068958;28;20487;-81
2023/04/26 11:21:07;;;;;;;3.78;1.27;;;;;;;;;;5052023;28;20060;-83
2023/04/26 11:23:32;;;;;;;3.20;1.20;;;;;;;;;;5061617;28;20060;-83
2023/04/26 11:26:07;;;;;;;3.08;1.20;;;;;;;;;;5051585;28;20108;-83
2023/04/26 11:28:33;;;;;;;2.58;0.95;;;;;;;;;;5053624;28;20041;-83
2023/04/26 11:30:59;;;;;;;3.60;1.13;;;;;;;;;;5051396;28;20492;-82
2023/04/26 11:33:25;;;;;;;2.85;1.00;;;;;;;;;;5056018;28;20090;-83
2023/04/26 11:35:53;;;;;;;6.40;1.30;;;;;;;;;;5053135;28;20033;-82
2023/04/26 11:38:23;;;;;;;3.35;1.40;;;;;;;;;;5062211;28;20033;-82
2023/04/26 11:40:56;;;;;;;4.15;1.10;;;;;;;;;;5037344;28;20492;-82
2023/04/26 11:43:21;;;;;;;4.25;1.35;;;;;;;;;;5053386;28;20044;-82
2023/04/26 11:45:46;;;;;;;3.72;1.20;;;;;;;;;;5057377;28;20029;-83
2023/04/26 11:48:12;;;;;;;4.63;1.30;;;;;;;;;;5050308;28;20079;-82
2023/04/26 11:50:38;;;;;;;2.65;1.15;;;;;;;;;;5043667;28;20037;-83
2023/04/26 11:53:07;;;;;;;5.70;1.40;;;;;;;;;;5050396;28;20044;-83
2023/04/26 11:55:34;;;;;;;4.45;1.67;;;;;;;;;;5052358;28;20025;-82
2023/04/26 11:58:00;;;;;;;3.83;1.40;;;;;;;;;;5060806;28;20056;-82
2023/04/26 12:00:26;;;;;;;3.78;1.33;;;;;;;;;;5051784;28;20330;-83
2023/04/26 12:02:52;;;;;;;6.90;1.45;;;;;;;;;;5050051;28;20610;-82
2023/04/26 12:05:25;;;;;;;3.33;1.40;;;;;;;;;;5036719;28;20139;-84
2023/04/26 12:07:51;;;;;;;4.65;1.30;;;;;;;;;;5052365;28;20520;-82
2023/04/26 12:10:30;;;;;;;5.25;1.65;;;;;;;;;;5054305;28;20112;-83
2023/04/26 12:12:58;;;;;;;6.32;1.40;;;;;;;;;;5049519;28;20025;-83
2023/04/26 12:15:24;;;;;;;;;;;;;;;;;;5050276;28;20067;-82
2023/04/26 12:18:11;;;;;;;4.32;1.20;;;;;;;;;;5051840;28;20371;-82
2023/04/26 12:20:38;;;;;;;5.27;1.30;;;;;;;;;;5049005;28;20139;-82
2023/04/26 12:23:12;;;;;;;;;;;;;;;;;;5051884;28;20488;-82
2023/04/26 12:25:38;;;;;;;3.58;1.27;;;;;;;;;;5051379;28;20312;-82
2023/04/26 12:28:11;;;;;;;4.90;1.60;;;;;;;;;;5053238;28;20516;-82
2023/04/26 12:30:37;;;;;;;2.85;1.33;;;;;;;;;;5032029;28;20035;-82
2023/04/26 12:33:03;;;;;;;4.07;1.33;;;;;;;;;;5055187;28;20087;-83
2023/04/26 12:35:29;;;;;;;4.88;1.35;;;;;;;;;;5032620;28;20041;-83
2023/04/26 12:37:55;;;;;;;3.25;1.23;;;;;;;;;;5049557;28;20081;-83
2023/04/26 12:40:22;;;;;;;4.88;1.73;;;;;;;;;;5047766;28;20056;-81
2023/04/26 12:42:49;;;;;;;4.85;1.48;;;;;;;;;;5059382;28;20028;-83
2023/04/26 12:45:17;;;;;;;2.80;1.23;;;;;;;;;;5021466;28;20507;-82
2023/04/26 12:47:42;;;;;;;3.95;1.30;;;;;;;;;;5032278;28;20500;-83
2023/04/26 12:50:10;;;;;;;4.15;1.60;;;;;;;;;;5034524;28;20048;-80
2023/04/26 12:52:36;;;;;;;4.22;1.50;;;;;;;;;;5042749;28;20410;-80
2023/04/26 12:55:03;;;;;;;5.00;1.60;;;;;;;;;;5057549;28;20036;-80
2023/04/26 12:57:29;;;;;;;;;;;;;;;;;;5049880;28;20036;-80
2023/04/26 12:59:55;;;;;;;3.55;1.30;;;;;;;;;;5069380;28;19920;-81
2023/04/26 13:02:21;;;;;;;3.40;1.42;;;;;;;;;;5046434;28;20479;-81
2023/04/26 13:04:46;;;;;;;9.38;1.42;;;;;;;;;;5050837;28;20175;-80
2023/04/26 13:07:11;;;;;;;3.95;1.20;;;;;;;;;;5041849;28;20516;-80
2023/04/26 13:09:37;;;;;;;2.63;1.08;;;;;;;;;;5049252;28;20033;-81
2023/04/26 13:12:03;;;;;;;6.00;1.27;;;;;;;;;;5052401;28;20047;-82
2023/04/26 13:14:28;;;;;;;3.03;1.27;;;;;;;;;;5049394;28;20032;-81
2023/04/26 13:16:54;;;;;;;4.38;1.27;;;;;;;;;;5035910;28;20120;-81
2023/04/26 13:19:19;;;;;;;4.93;1.60;;;;;;;;;;5051143;28;20587;-82
2023/04/26 13:21:45;;;;;;;4.15;1.23;;;;;;;;;;5034762;28;20044;-83
2023/04/26 13:24:10;;;;;;;2.45;1.20;;;;;;;;;;5050512;28;20045;-80
2023/04/26 13:26:36;;;;;;;4.25;1.25;;;;;;;;;;5038038;28;20101;-80
2023/04/26 13:29:03;;;;;;;4.97;1.38;;;;;;;;;;5051117;28;20671;-82
2023/04/26 13:31:28;;;;;;;4.13;1.23;;;;;;;;;;5055377;28;20450;-81
2023/04/26 13:33:54;;;;;;;4.57;1.48;;;;;;;;;;5043299;28;20029;-81
2023/04/26 13:36:19;;;;;;;4.28;1.50;;;;;;;;;;5048946;28;20136;-82
2023/04/26 13:38:44;;;;;;;4.35;1.33;;;;;;;;;;5049677;28;20040;-79
2023/04/26 13:41:10;;;;;;;5.22;1.50;;;;;;;;;;5039989;28;20138;-83
2023/04/26 13:43:36;;;;;;;7.32;1.52;;;;;;;;;;5041556;28;20063;-83
2023/04/26 13:46:01;;;;;;;4.72;1.67;;;;;;;;;;5041531;28;20025;-81
2023/04/26 13:48:27;;;;;;;4.50;1.40;;;;;;;;;;5034815;28;20532;-81
2023/04/26 13:50:52;;;;;;;2.58;1.30;;;;;;;;;;5035725;28;20032;-81
2023/04/26 13:53:21;;;;;;;5.32;1.42;;;;;;;;;;5051518;28;20037;-82
2023/04/26 13:55:47;;;;;;;4.03;1.50;;;;;;;;;;5048900;28;20123;-82
2023/04/26 13:58:12;;;;;;;6.47;1.67;;;;;;;;;;5037038;28;20075;-82
2023/04/26 14:00:37;;;;;;;2.75;1.30;;;;;;;;;;5048910;28;21223;-81
2023/04/26 14:03:03;;;;;;;4.13;1.17;;;;;;;;;;5041910;28;20045;-81
2023/04/26 14:05:28;;;;;;;5.05;1.75;;;;;;;;;;5050710;28;20025;-84
2023/04/26 14:07:54;;;;;;;3.67;1.30;;;;;;;;;;5037420;28;20428;-83
2023/04/26 14:10:19;;;;;;;4.28;1.50;;;;;;;;;;5049885;28;20484;-83
2023/04/26 14:12:45;;;;;;;3.03;1.20;;;;;;;;;;5047834;28;20045;-83
2023/04/26 14:15:11;;;;;;;3.45;1.40;;;;;;;;;;5055178;28;20037;-83
2023/04/26 14:17:36;;;;;;;3.03;1.38;;;;;;;;;;5049764;28;20467;-83
2023/04/26 14:20:02;;;;;;;4.93;1.55;;;;;;;;;;5052310;28;20044;-82
2023/04/26 14:22:27;;;;;;;4.57;1.20;;;;;;;;;;5035359;28;20033;-82
2023/04/26 14:24:52;;;;;;;3.65;1.25;;;;;;;;;;5048013;28;20565;-82
2023/04/26 14:27:18;;;;;;;4.65;1.40;;;;;;;;;;5047734;28;20357;-83
2023/04/26 14:29:43;;;;;;;5.35;1.60;;;;;;;;;;5050395;28;20180;-82
2023/04/26 14:32:09;;;;;;;3.38;1.30;;;;;;;;;;5050128;28;20064;-83
2023/04/26 14:34:37;;;;;;;3.83;1.20;;;;;;;;;;5053569;28;20048;-82
2023/04/26 14:37:03;;;;;;;4.85;1.35;;;;;;;;;;5055906;28;20818;-82
2023/04/26 14:39:29;;;;;;;4.30;1.35;;;;;;;;;;5048937;28;20039;-82
2023/04/26 14:41:55;;;;;;;4.15;1.25;;;;;;;;;;5036480;28;20500;-83